Time;durP1;ratioP1;P1;durP2;ratioP2;P2;SDS_P1;SDS_P2;PMS_P1;PMS_P2;Temp;Humidity;BMP_temperature;BMP_pressure;BME280_temperature;BME280_humidity;BME280_pressure;Samples;Min_cycle;Max_cycle;Signal;HPM_P1;HPM_P2
2023/09/11 00:01:37;;;;;;;8.57;7.87;;;15.90;99.90;;;;;;5013818;28;20989;-65
2023/09/11 00:04:04;;;;;;;7.70;7.00;;;15.90;99.90;;;;;;5014388;28;20465;-65
2023/09/11 00:06:32;;;;;;;9.13;8.23;;;15.80;99.90;;;;;;5014101;28;20535;-65
2023/09/11 00:09:00;;;;;;;8.30;7.60;;;15.80;99.90;;;;;;5014680;28;20442;-65
2023/09/11 00:11:27;;;;;;;7.40;6.83;;;15.80;99.90;;;;;;5014283;28;20569;-65
2023/09/11 00:13:54;;;;;;;8.53;7.70;;;15.80;99.90;;;;;;5014250;28;20457;-65
2023/09/11 00:16:20;;;;;;;7.80;7.20;;;15.70;99.90;;;;;;5013750;28;20479;-65
2023/09/11 00:18:48;;;;;;;7.93;6.93;;;15.70;99.90;;;;;;5014139;28;20493;-65
2023/09/11 00:21:15;;;;;;;9.60;8.60;;;15.70;99.90;;;;;;5013897;28;20467;-65
2023/09/11 00:23:43;;;;;;;9.13;7.77;;;15.70;99.90;;;;;;5014307;28;20444;-65
2023/09/11 00:26:09;;;;;;;8.30;7.53;;;15.70;99.90;;;;;;5013742;28;20453;-65
2023/09/11 00:28:36;;;;;;;7.53;6.90;;;15.70;99.90;;;;;;5014109;28;20529;-65
2023/09/11 00:31:03;;;;;;;8.60;7.73;;;15.60;99.90;;;;;;5013870;28;20470;-65
2023/09/11 00:33:30;;;;;;;8.43;7.50;;;15.60;99.90;;;;;;5013736;28;20450;-65
2023/09/11 00:35:57;;;;;;;8.93;8.13;;;15.60;99.90;;;;;;5014220;28;20457;-65
2023/09/11 00:38:24;;;;;;;7.13;6.53;;;15.60;99.90;;;;;;5013925;28;20592;-65
2023/09/11 00:40:52;;;;;;;8.40;7.60;;;15.50;99.90;;;;;;5013870;28;20457;-65
2023/09/11 00:43:19;;;;;;;7.50;6.90;;;15.50;99.90;;;;;;5013700;28;20464;-65
2023/09/11 00:45:48;;;;;;;7.80;7.10;;;15.50;99.90;;;;;;5013413;28;20445;-65
2023/09/11 00:48:15;;;;;;;7.73;7.03;;;15.50;99.90;;;;;;5013457;28;20453;-65
2023/09/11 00:50:44;;;;;;;7.73;7.23;;;15.50;99.90;;;;;;5013744;28;20529;-65
2023/09/11 00:53:11;;;;;;;7.30;6.70;;;15.40;99.90;;;;;;5013733;28;20545;-65
2023/09/11 00:55:39;;;;;;;7.70;7.00;;;15.40;99.90;;;;;;5013353;28;20532;-65
2023/09/11 00:58:07;;;;;;;8.37;7.67;;;15.40;99.90;;;;;;5012951;28;20488;-65
2023/09/11 01:00:34;;;;;;;12.20;7.70;;;15.40;99.90;;;;;;5013205;28;20442;-64
2023/09/11 01:03:01;;;;;;;8.40;7.70;;;15.40;99.90;;;;;;5013288;28;20450;-65
2023/09/11 01:05:30;;;;;;;8.77;7.93;;;15.30;99.90;;;;;;5013240;28;20451;-65
2023/09/11 01:07:57;;;;;;;7.70;7.10;;;15.30;99.90;;;;;;5013150;28;20441;-65
2023/09/11 01:10:24;;;;;;;7.90;7.30;;;15.30;99.90;;;;;;5012845;28;20451;-65
2023/09/11 01:12:51;;;;;;;7.47;6.53;;;15.30;99.90;;;;;;5013076;28;20466;-65
2023/09/11 01:15:19;;;;;;;7.73;7.03;;;15.20;99.90;;;;;;5012736;28;20543;-65
2023/09/11 01:17:51;;;;;;;9.27;7.60;;;15.20;99.90;;;;;;5012996;28;20971;-64
2023/09/11 01:20:52;;;;;;;7.60;7.03;;;15.20;99.90;;;;;;5013210;28;20513;-65
2023/09/11 01:23:51;;;;;;;8.80;8.10;;;15.20;99.90;;;;;;5012984;28;20450;-65
2023/09/11 01:26:39;;;;;;;8.40;7.60;;;15.20;99.90;;;;;;5012625;28;21023;-65
2023/09/11 01:29:14;;;;;;;8.40;7.60;;;15.10;99.90;;;;;;5013013;28;20880;-65
2023/09/11 01:31:44;;;;;;;8.13;7.23;;;15.10;99.90;;;;;;5012897;28;20544;-65
2023/09/11 01:34:11;;;;;;;9.97;8.97;;;15.10;99.90;;;;;;5012751;28;20957;-65
2023/09/11 01:36:37;;;;;;;9.70;8.87;;;15.10;99.90;;;;;;5012687;28;20459;-65
2023/09/11 01:39:05;;;;;;;8.10;7.50;;;15.10;99.90;;;;;;5012808;28;20867;-65
2023/09/11 01:41:34;;;;;;;7.87;7.00;;;15.00;99.90;;;;;;5012549;28;20462;-65
2023/09/11 01:44:09;;;;;;;8.27;7.57;;;15.00;99.90;;;;;;5012389;28;20458;-65
2023/09/11 01:46:38;;;;;;;9.50;8.20;;;15.00;99.90;;;;;;5012233;28;20529;-65
2023/09/11 01:49:07;;;;;;;8.17;7.57;;;15.00;99.90;;;;;;5012750;28;20444;-65
2023/09/11 01:51:36;;;;;;;7.87;7.17;;;14.90;99.90;;;;;;5012240;28;21039;-65
2023/09/11 01:54:04;;;;;;;8.20;7.30;;;15.00;99.90;;;;;;5012400;28;20548;-65
2023/09/11 01:56:31;;;;;;;9.37;8.47;;;15.00;99.90;;;;;;5012162;28;20525;-65
2023/09/11 01:58:58;;;;;;;8.43;7.73;;;15.00;99.90;;;;;;5012109;28;20483;-65
2023/09/11 02:01:26;;;;;;;8.13;7.53;;;14.90;99.90;;;;;;5036168;23;20479;-66
2023/09/11 02:03:54;;;;;;;8.80;7.90;;;14.90;99.90;;;;;;5011507;28;20471;-64
2023/09/11 02:06:21;;;;;;;8.60;7.80;;;14.90;99.90;;;;;;5011712;28;20454;-65
2023/09/11 02:08:48;;;;;;;8.90;7.80;;;14.90;99.90;;;;;;5011930;28;20442;-64
2023/09/11 02:11:14;;;;;;;8.33;7.53;;;14.90;99.90;;;;;;5012576;28;20449;-65
2023/09/11 02:13:42;;;;;;;7.23;6.63;;;14.90;99.90;;;;;;5012410;28;20463;-64
2023/09/11 02:16:09;;;;;;;7.80;7.00;;;14.90;99.90;;;;;;5011975;28;20453;-65
2023/09/11 02:18:38;;;;;;;8.17;7.47;;;14.80;99.90;;;;;;5012471;28;20505;-65
2023/09/11 02:21:06;;;;;;;9.20;8.47;;;14.80;99.90;;;;;;5012414;28;20453;-65
2023/09/11 02:23:33;;;;;;;8.30;7.67;;;14.80;99.90;;;;;;5012151;28;20470;-64
2023/09/11 02:26:00;;;;;;;7.83;7.23;;;14.70;99.90;;;;;;5011954;28;20457;-65
2023/09/11 02:28:27;;;;;;;8.13;7.43;;;14.70;99.90;;;;;;5012054;28;20451;-65
2023/09/11 02:30:55;;;;;;;7.87;7.10;;;14.70;99.90;;;;;;5011949;28;20524;-65
2023/09/11 02:33:21;;;;;;;7.70;7.17;;;14.70;99.90;;;;;;5012181;28;20476;-65
2023/09/11 02:35:53;;;;;;;8.30;7.50;;;14.70;99.90;;;;;;5012009;28;20819;-64
2023/09/11 02:38:22;;;;;;;8.40;7.60;;;14.70;99.90;;;;;;5011829;28;20899;-65
2023/09/11 02:40:49;;;;;;;8.80;8.10;;;14.70;99.90;;;;;;5012065;28;20539;-65
2023/09/11 02:43:16;;;;;;;7.93;7.27;;;14.60;99.90;;;;;;5011763;28;20554;-64
2023/09/11 02:45:43;;;;;;;8.17;7.47;;;14.60;99.90;;;;;;5011724;28;20488;-64
2023/09/11 02:48:10;;;;;;;8.50;7.80;;;14.60;99.90;;;;;;5011838;28;20459;-65
2023/09/11 02:50:38;;;;;;;8.30;7.53;;;14.60;99.90;;;;;;5011924;28;20560;-65
2023/09/11 02:53:07;;;;;;;7.50;6.90;;;14.60;99.90;;;;;;5011735;28;20554;-64
2023/09/11 02:55:37;;;;;;;7.27;6.57;;;14.60;99.90;;;;;;5011285;28;20461;-64
2023/09/11 02:58:04;;;;;;;9.33;7.33;;;14.60;99.90;;;;;;5011949;28;20535;-64
2023/09/11 03:00:31;;;;;;;7.67;7.03;;;14.50;99.90;;;;;;5011869;28;20486;-64
2023/09/11 03:02:57;;;;;;;8.83;7.57;;;14.50;99.90;;;;;;5011495;28;20480;-64
2023/09/11 03:05:24;;;;;;;9.30;7.50;;;14.50;99.90;;;;;;5011553;28;20535;-64
2023/09/11 03:07:51;;;;;;;8.47;7.77;;;14.50;99.90;;;;;;5011629;28;20447;-65
2023/09/11 03:10:18;;;;;;;8.33;7.67;;;14.50;99.90;;;;;;5011542;28;20451;-65
2023/09/11 03:12:46;;;;;;;8.07;7.47;;;14.50;99.90;;;;;;5011826;28;20466;-65
2023/09/11 03:15:13;;;;;;;7.73;7.13;;;14.50;99.90;;;;;;5011597;28;21175;-64
2023/09/11 03:17:40;;;;;;;8.20;7.50;;;14.50;99.90;;;;;;5011762;28;20526;-64
2023/09/11 03:20:08;;;;;;;7.47;6.83;;;14.40;99.90;;;;;;5012310;28;20576;-65
2023/09/11 03:22:35;;;;;;;7.13;6.53;;;14.40;99.90;;;;;;5015139;28;20473;-65
2023/09/11 03:25:02;;;;;;;10.33;9.17;;;14.40;99.90;;;;;;5015249;28;20568;-65
2023/09/11 03:27:29;;;;;;;8.40;7.57;;;14.40;99.90;;;;;;5015435;28;20455;-65
2023/09/11 03:29:57;;;;;;;7.60;7.00;;;14.40;99.90;;;;;;5015492;28;20819;-65
2023/09/11 03:32:24;;;;;;;10.20;7.57;;;14.40;99.90;;;;;;5015187;28;20474;-64
2023/09/11 03:34:54;;;;;;;7.33;6.63;;;14.30;99.90;;;;;;5014880;28;20452;-64
2023/09/11 03:37:21;;;;;;;8.30;7.53;;;14.30;99.90;;;;;;5015798;28;20786;-65
2023/09/11 03:39:47;;;;;;;9.20;8.30;;;14.40;99.90;;;;;;5015171;28;20570;-65
2023/09/11 03:42:14;;;;;;;7.87;7.10;;;14.30;99.90;;;;;;5015279;28;20462;-65
2023/09/11 03:44:41;;;;;;;8.73;7.83;;;14.30;99.90;;;;;;5014915;28;20539;-65
2023/09/11 03:47:09;;;;;;;8.50;7.63;;;14.30;99.90;;;;;;5015181;28;20830;-65
2023/09/11 03:49:38;;;;;;;8.30;7.70;;;14.20;99.90;;;;;;5015619;28;20953;-65
2023/09/11 03:52:04;;;;;;;10.33;7.93;;;14.20;99.90;;;;;;5014875;28;20473;-64
2023/09/11 03:54:31;;;;;;;7.90;7.10;;;14.20;99.90;;;;;;5014956;28;20449;-64
2023/09/11 03:56:58;;;;;;;8.93;8.03;;;14.20;99.90;;;;;;5015239;28;20653;-64
2023/09/11 03:59:25;;;;;;;8.87;7.90;;;14.20;99.90;;;;;;5014844;28;20489;-65
2023/09/11 04:01:52;;;;;;;8.73;8.03;;;14.20;99.90;;;;;;5014538;28;20856;-65
2023/09/11 04:04:20;;;;;;;7.47;6.77;;;14.20;99.90;;;;;;5014926;28;20456;-64
2023/09/11 04:06:47;;;;;;;10.00;7.63;;;14.10;99.90;;;;;;5014664;28;20529;-65
2023/09/11 04:09:13;;;;;;;7.87;7.07;;;14.10;99.90;;;;;;5014691;28;20454;-64
2023/09/11 04:11:40;;;;;;;8.00;7.30;;;14.10;99.90;;;;;;5014464;28;20995;-64
2023/09/11 04:14:07;;;;;;;8.73;7.90;;;14.10;99.90;;;;;;5014560;28;20461;-65
2023/09/11 04:16:34;;;;;;;7.67;7.03;;;14.10;99.90;;;;;;5013982;28;20458;-65
2023/09/11 04:19:01;;;;;;;10.07;7.10;;;14.10;99.90;;;;;;5014377;28;21027;-65
2023/09/11 04:21:29;;;;;;;8.83;8.07;;;14.00;99.90;;;;;;5014548;28;20488;-64
2023/09/11 04:23:56;;;;;;;9.33;8.43;;;14.00;99.90;;;;;;5014266;28;20461;-65
2023/09/11 04:26:23;;;;;;;7.70;7.10;;;14.00;99.90;;;;;;5014071;28;20457;-64
2023/09/11 04:28:49;;;;;;;8.40;7.60;;;14.00;99.90;;;;;;5014200;28;20536;-65
2023/09/11 04:31:16;;;;;;;8.30;7.70;;;14.00;99.90;;;;;;5013838;28;20526;-65
2023/09/11 04:33:43;;;;;;;8.63;7.90;;;13.90;99.90;;;;;;5013875;28;20469;-65
2023/09/11 04:36:11;;;;;;;9.33;8.30;;;13.90;99.90;;;;;;5014172;28;20819;-65
2023/09/11 04:38:39;;;;;;;8.07;7.33;;;13.90;99.90;;;;;;5014006;28;20453;-64
2023/09/11 04:41:06;;;;;;;10.03;8.90;;;13.90;99.90;;;;;;5014030;28;20497;-65
2023/09/11 04:43:33;;;;;;;7.73;6.93;;;13.90;99.90;;;;;;5013900;28;20580;-64
2023/09/11 04:46:00;;;;;;;8.93;8.23;;;13.90;99.90;;;;;;5013865;28;20537;-65
2023/09/11 04:48:27;;;;;;;8.53;7.80;;;13.90;99.90;;;;;;5014002;28;20485;-65
2023/09/11 04:50:54;;;;;;;9.23;8.33;;;13.90;99.90;;;;;;5013935;28;20439;-65
2023/09/11 04:53:20;;;;;;;8.20;7.50;;;13.80;99.90;;;;;;5013726;28;20472;-65
2023/09/11 04:55:49;;;;;;;8.20;7.37;;;13.80;99.90;;;;;;5013393;28;20832;-65
2023/09/11 04:58:16;;;;;;;8.33;7.53;;;13.80;99.90;;;;;;5013711;28;20444;-64
2023/09/11 05:00:43;;;;;;;10.50;8.17;;;13.80;99.90;;;;;;5013757;28;20573;-65
2023/09/11 05:03:10;;;;;;;9.20;8.47;;;13.80;99.90;;;;;;5013579;28;20490;-65
2023/09/11 05:05:41;;;;;;;8.20;7.50;;;13.80;99.90;;;;;;5013255;28;20482;-65
2023/09/11 05:08:08;;;;;;;9.60;7.97;;;13.80;99.90;;;;;;5013447;28;20509;-65
2023/09/11 05:10:36;;;;;;;8.40;7.60;;;13.80;99.90;;;;;;5013416;28;20446;-64
2023/09/11 05:13:04;;;;;;;8.63;7.93;;;13.80;99.90;;;;;;5013458;28;20469;-65
2023/09/11 05:15:31;;;;;;;8.27;7.50;;;13.80;99.90;;;;;;5013230;28;20870;-65
2023/09/11 05:17:58;;;;;;;8.87;8.07;;;13.80;99.90;;;;;;5013328;28;20450;-65
2023/09/11 05:20:25;;;;;;;7.70;7.10;;;13.80;99.90;;;;;;5013167;28;20488;-65
2023/09/11 05:22:52;;;;;;;9.13;8.33;;;13.80;99.90;;;;;;5013032;28;20466;-65
2023/09/11 05:25:21;;;;;;;10.00;6.93;;;13.80;99.90;;;;;;5012929;28;20452;-65
2023/09/11 05:27:48;;;;;;;8.20;7.13;;;13.80;99.90;;;;;;5013357;28;20446;-64
2023/09/11 05:30:16;;;;;;;7.90;7.20;;;13.80;99.90;;;;;;5013289;28;20802;-64
2023/09/11 05:32:43;;;;;;;8.83;8.13;;;13.80;99.90;;;;;;5013108;28;20480;-64
2023/09/11 05:35:10;;;;;;;9.33;8.53;;;13.90;99.90;;;;;;5012767;28;20794;-65
2023/09/11 05:37:37;;;;;;;8.07;7.27;;;13.90;99.90;;;;;;5012749;28;20446;-65
2023/09/11 05:40:07;;;;;;;7.87;7.07;;;13.90;99.90;;;;;;5013090;28;20482;-65
2023/09/11 05:42:33;;;;;;;9.13;8.30;;;13.90;99.90;;;;;;5012975;28;20534;-65
2023/09/11 05:45:00;;;;;;;11.20;8.77;;;13.90;99.90;;;;;;5012722;28;20900;-65
2023/09/11 05:47:28;;;;;;;8.63;7.73;;;14.00;99.90;;;;;;5013036;28;20452;-64
2023/09/11 05:50:00;;;;;;;9.87;7.50;;;14.00;99.90;;;;;;5013692;28;20446;-65
2023/09/11 05:52:27;;;;;;;8.23;7.50;;;14.00;99.90;;;;;;5013582;28;20998;-65
2023/09/11 05:54:53;;;;;;;9.70;8.90;;;14.00;99.90;;;;;;5013412;28;20484;-64
2023/09/11 05:57:20;;;;;;;9.00;8.10;;;14.10;99.90;;;;;;5014122;28;20457;-65
2023/09/11 05:59:47;;;;;;;11.80;8.20;;;14.10;99.90;;;;;;5013280;28;20494;-64
2023/09/11 06:02:14;;;;;;;9.33;8.53;;;14.10;99.90;;;;;;5013418;28;20519;-64
2023/09/11 06:04:42;;;;;;;8.60;8.00;;;14.10;99.90;;;;;;5012350;28;20453;-65
2023/09/11 06:07:10;;;;;;;8.63;7.70;;;14.10;99.90;;;;;;5012564;28;20458;-64
2023/09/11 06:09:37;;;;;;;9.80;8.23;;;14.20;99.90;;;;;;5012490;28;20453;-64
2023/09/11 06:12:04;;;;;;;7.77;7.17;;;14.20;99.90;;;;;;5012258;28;20481;-64
2023/09/11 06:14:31;;;;;;;10.20;8.30;;;14.20;99.90;;;;;;5012122;28;20449;-64
2023/09/11 06:16:57;;;;;;;9.60;8.77;;;14.30;99.90;;;;;;5012341;28;20457;-64
2023/09/11 06:19:24;;;;;;;10.17;8.40;;;14.30;99.90;;;;;;5011995;28;20459;-64
2023/09/11 06:21:53;;;;;;;8.53;7.83;;;14.40;99.90;;;;;;5012182;28;20488;-65
2023/09/11 06:24:20;;;;;;;8.83;8.13;;;14.40;99.90;;;;;;5012185;28;20458;-64
2023/09/11 06:26:47;;;;;;;9.17;8.30;;;14.40;99.90;;;;;;5011976;28;20458;-64
2023/09/11 06:29:14;;;;;;;9.57;8.70;;;14.50;99.90;;;;;;5011959;28;20448;-64
2023/09/11 06:31:41;;;;;;;10.67;9.00;;;14.50;99.90;;;;;;5011885;28;20485;-64
2023/09/11 06:34:08;;;;;;;9.60;8.30;;;14.50;99.90;;;;;;5010484;28;20558;-64
2023/09/11 06:36:35;;;;;;;8.67;7.80;;;14.60;99.90;;;;;;5011257;28;20522;-64
2023/09/11 06:39:05;;;;;;;10.10;8.77;;;14.70;99.90;;;;;;5011439;28;20447;-65
2023/09/11 06:41:32;;;;;;;9.53;8.73;;;14.70;99.90;;;;;;5011548;28;20858;-64
2023/09/11 06:43:59;;;;;;;10.47;8.30;;;14.80;99.90;;;;;;5011665;28;20442;-64
2023/09/11 06:46:26;;;;;;;9.87;9.00;;;14.80;99.90;;;;;;5010965;28;20949;-64
2023/09/11 06:48:52;;;;;;;9.70;8.90;;;14.90;99.90;;;;;;5011429;28;20462;-64
2023/09/11 06:51:19;;;;;;;8.30;7.60;;;15.00;99.90;;;;;;5011376;28;20467;-64
2023/09/11 06:53:48;;;;;;;9.00;8.30;;;15.20;99.90;;;;;;5011387;28;20461;-65
2023/09/11 06:56:16;;;;;;;9.60;8.60;;;15.40;99.90;;;;;;5010569;28;20459;-65
2023/09/11 06:58:43;;;;;;;9.20;8.37;;;15.60;99.90;;;;;;5011240;28;20518;-65
2023/09/11 07:01:09;;;;;;;9.10;8.20;;;15.80;99.90;;;;;;5010945;28;20509;-65
2023/09/11 07:03:36;;;;;;;10.10;8.60;;;16.00;99.90;;;;;;5011004;28;20481;-65
2023/09/11 07:06:03;;;;;;;9.07;8.37;;;16.10;99.90;;;;;;5010788;28;20839;-65
2023/09/11 07:08:30;;;;;;;13.67;10.90;;;16.30;99.90;;;;;;5011157;28;20423;-65
2023/09/11 07:10:57;;;;;;;10.80;9.50;;;16.50;99.90;;;;;;5011171;28;20444;-65
2023/09/11 07:13:25;;;;;;;10.20;9.20;;;16.70;99.90;;;;;;5010929;28;20943;-65
2023/09/11 07:15:56;;;;;;;9.70;8.80;;;16.90;99.90;;;;;;5010585;28;20452;-65
2023/09/11 07:18:23;;;;;;;9.90;9.00;;;17.10;99.90;;;;;;5011142;28;20543;-65
2023/09/11 07:20:51;;;;;;;10.67;9.70;;;17.30;99.90;;;;;;5011023;28;20494;-65
2023/09/11 07:23:18;;;;;;;20.07;12.87;;;17.50;99.90;;;;;;5011083;28;20475;-65
2023/09/11 07:25:46;;;;;;;11.90;10.70;;;17.70;99.90;;;;;;5010514;28;20534;-64
2023/09/11 07:28:14;;;;;;;14.23;9.80;;;17.80;99.90;;;;;;5010844;28;20873;-65
2023/09/11 07:30:43;;;;;;;10.47;9.47;;;18.00;99.90;;;;;;5011247;28;20557;-65
2023/09/11 07:33:10;;;;;;;9.93;9.00;;;18.20;99.90;;;;;;5010796;28;20472;-64
2023/09/11 07:35:37;;;;;;;12.00;10.93;;;18.30;99.90;;;;;;5010502;28;21225;-65
2023/09/11 07:38:05;;;;;;;11.37;9.37;;;18.50;99.90;;;;;;5010843;28;20449;-65
2023/09/11 07:40:32;;;;;;;9.33;8.50;;;18.70;99.90;;;;;;5010699;28;20482;-65
2023/09/11 07:42:59;;;;;;;10.67;9.60;;;18.80;99.90;;;;;;5011079;28;20462;-65
2023/09/11 07:45:26;;;;;;;9.23;8.53;;;18.90;99.90;;;;;;5010847;28;20544;-65
2023/09/11 07:47:55;;;;;;;10.13;9.33;;;19.10;99.90;;;;;;5010678;28;20445;-65
2023/09/11 07:50:22;;;;;;;10.20;9.30;;;19.20;99.90;;;;;;5010844;28;20452;-65
2023/09/11 07:52:50;;;;;;;8.90;8.10;;;19.30;99.90;;;;;;5010615;28;20995;-65
2023/09/11 07:55:17;;;;;;;10.77;9.73;;;19.40;99.90;;;;;;5010248;28;20497;-65
2023/09/11 07:57:44;;;;;;;9.63;8.97;;;19.50;99.90;;;;;;5010808;28;20450;-65
2023/09/11 08:00:12;;;;;;;10.10;9.30;;;19.60;99.90;;;;;;5010724;28;20537;-65
2023/09/11 08:02:39;;;;;;;10.63;9.63;;;19.70;99.90;;;;;;5010485;28;20562;-65
2023/09/11 08:05:07;;;;;;;12.80;10.50;;;19.80;99.90;;;;;;5010253;28;21148;-65
2023/09/11 08:07:34;;;;;;;12.70;8.47;;;20.00;99.90;;;;;;5009883;28;20831;-65
2023/09/11 08:10:01;;;;;;;10.10;9.17;;;20.00;99.90;;;;;;5013745;28;21003;-65
2023/09/11 08:12:28;;;;;;;11.80;9.47;;;20.20;99.90;;;;;;5013759;28;20471;-65
2023/09/11 08:14:55;;;;;;;9.63;8.80;;;20.30;99.90;;;;;;5013652;28;20479;-65
2023/09/11 08:17:22;;;;;;;11.53;10.43;;;20.30;99.90;;;;;;5013614;28;20447;-65
2023/09/11 08:19:49;;;;;;;9.60;8.83;;;20.40;99.90;;;;;;5013659;28;20474;-65
2023/09/11 08:22:18;;;;;;;12.57;11.60;;;20.60;99.90;;;;;;5013325;28;20499;-65
2023/09/11 08:24:44;;;;;;;9.53;8.73;;;20.60;99.90;;;;;;5013633;28;20445;-65
2023/09/11 08:27:11;;;;;;;11.20;10.10;;;20.70;99.90;;;;;;5013562;28;20453;-65
2023/09/11 08:29:38;;;;;;;9.27;8.57;;;20.90;99.90;;;;;;5013631;28;20447;-65
2023/09/11 08:32:05;;;;;;;9.10;8.40;;;20.90;99.90;;;;;;5013375;28;20460;-65
2023/09/11 08:34:32;;;;;;;11.20;10.33;;;21.00;99.90;;;;;;5013336;28;20449;-65
2023/09/11 08:36:59;;;;;;;11.07;9.90;;;21.00;99.90;;;;;;5013198;28;20868;-65
2023/09/11 08:39:27;;;;;;;10.20;9.30;;;21.10;99.90;;;;;;5013571;28;20454;-65
2023/09/11 08:41:58;;;;;;;11.83;9.70;;;21.20;99.90;;;;;;5013099;28;20494;-65
2023/09/11 08:44:25;;;;;;;10.00;8.93;;;21.30;99.90;;;;;;5013407;28;20443;-65
2023/09/11 08:46:55;;;;;;;10.37;9.67;;;21.30;99.90;;;;;;5035309;22;20499;-66
2023/09/11 08:49:26;;;;;;;10.30;9.30;;;21.40;99.90;;;;;;5013241;28;20530;-66
2023/09/11 08:51:55;;;;;;;11.00;10.20;;;21.50;99.90;;;;;;5013377;28;20848;-66
2023/09/11 08:54:27;;;;;;;8.97;8.30;;;21.70;99.90;;;;;;5013206;28;21031;-66
2023/09/11 08:56:56;;;;;;;10.13;8.97;;;21.70;99.90;;;;;;5013171;28;20468;-66
2023/09/11 08:59:25;;;;;;;9.70;8.90;;;21.90;99.90;;;;;;5013209;28;20442;-65
2023/09/11 09:01:52;;;;;;;9.80;8.90;;;22.00;99.90;;;;;;5013019;28;20484;-66
2023/09/11 09:04:20;;;;;;;10.57;9.67;;;22.10;99.90;;;;;;5013016;28;20442;-66
2023/09/11 09:06:48;;;;;;;10.27;9.27;;;22.20;99.90;;;;;;5012845;28;20546;-66
2023/09/11 09:09:15;;;;;;;9.93;9.13;;;22.30;99.90;;;;;;5013071;28;20865;-65
2023/09/11 09:11:47;;;;;;;10.13;9.33;;;22.50;99.90;;;;;;5013019;28;20446;-66
2023/09/11 09:14:17;;;;;;;9.47;8.63;;;22.50;99.90;;;;;;5013093;28;20887;-66
2023/09/11 09:16:45;;;;;;;8.40;7.80;;;22.60;99.90;;;;;;5012418;28;20541;-66
2023/09/11 09:19:12;;;;;;;11.63;10.43;;;22.70;99.90;;;;;;5012375;28;20447;-66
2023/09/11 09:22:09;;;;;;;9.00;8.30;;;22.80;99.90;;;;;;5012538;28;20572;-66
2023/09/11 09:24:37;;;;;;;9.90;8.07;;;22.90;99.90;;;;;;5012493;28;20450;-64
2023/09/11 09:27:06;;;;;;;9.20;8.30;;;23.00;99.90;;;;;;5012552;28;20836;-66
2023/09/11 09:29:36;;;;;;;8.77;8.10;;;23.10;99.90;;;;;;5012693;28;21377;-66
2023/09/11 09:32:03;;;;;;;9.23;8.53;;;23.20;99.90;;;;;;5012166;28;20443;-66
2023/09/11 09:34:32;;;;;;;9.27;8.63;;;23.40;99.90;;;;;;5012479;28;20526;-66
2023/09/11 09:36:59;;;;;;;9.40;8.70;;;23.40;99.90;;;;;;5012439;28;21055;-66
2023/09/11 09:39:28;;;;;;;9.93;8.87;;;23.60;99.90;;;;;;5012409;28;20446;-66
2023/09/11 09:41:56;;;;;;;7.50;7.00;;;23.70;99.90;;;;;;5012106;28;20504;-66
2023/09/11 09:44:29;;;;;;;8.43;7.73;;;23.90;99.90;;;;;;5012438;28;20522;-66
2023/09/11 09:46:57;;;;;;;9.40;8.43;;;24.10;99.90;;;;;;5011262;28;20480;-64
2023/09/11 09:49:24;;;;;;;9.30;8.60;;;24.20;99.90;;;;;;5012256;28;20913;-64
2023/09/11 09:51:53;;;;;;;9.23;8.53;;;24.30;99.90;;;;;;5011974;28;20439;-63
2023/09/11 09:54:20;;;;;;;8.93;7.10;;;24.40;99.90;;;;;;5011979;28;20813;-64
2023/09/11 09:56:48;;;;;;;9.47;8.60;;;24.50;99.90;;;;;;5012046;28;20468;-64
2023/09/11 09:59:24;;;;;;;9.47;8.40;;;24.60;99.90;;;;;;5012217;28;20459;-64
2023/09/11 10:01:51;;;;;;;8.43;7.80;;;24.70;99.90;;;;;;5011755;28;20487;-64
2023/09/11 10:04:21;;;;;;;9.10;8.30;;;24.80;99.90;;;;;;5012064;28;20439;-64
2023/09/11 10:06:54;;;;;;;8.70;8.00;;;25.00;99.90;;;;;;5011543;28;20474;-64
2023/09/11 10:09:21;;;;;;;8.23;7.23;;;25.10;99.90;;;;;;5011949;28;20443;-64
2023/09/11 10:11:51;;;;;;;8.93;8.27;;;25.20;99.90;;;;;;5011839;28;20440;-64
2023/09/11 10:14:19;;;;;;;8.30;7.60;;;25.30;99.90;;;;;;5011598;28;20440;-64
2023/09/11 10:16:46;;;;;;;8.53;7.83;;;25.30;99.90;;;;;;5011391;28;20477;-64
2023/09/11 10:19:15;;;;;;;8.97;7.47;;;25.50;99.90;;;;;;5011516;28;20456;-64
2023/09/11 10:21:44;;;;;;;8.83;8.13;;;25.60;99.90;;;;;;5011809;28;20833;-64
2023/09/11 10:24:12;;;;;;;9.07;8.13;;;25.80;99.90;;;;;;5011622;28;20451;-64
2023/09/11 10:26:45;;;;;;;8.73;8.10;;;25.90;99.90;;;;;;5011378;28;20833;-64
2023/09/11 10:29:18;;;;;;;9.13;8.33;;;26.00;99.60;;;;;;5011022;28;20676;-64
2023/09/11 10:31:53;;;;;;;7.77;7.10;;;26.10;99.10;;;;;;5011286;28;20805;-64
2023/09/11 10:34:21;;;;;;;8.57;7.87;;;26.20;98.60;;;;;;5011497;28;20447;-64
2023/09/11 10:36:56;;;;;;;8.50;7.70;;;26.30;98.00;;;;;;5011236;28;20857;-64
2023/09/11 10:39:23;;;;;;;8.57;7.67;;;26.40;98.20;;;;;;5011335;28;20989;-64
2023/09/11 10:41:50;;;;;;;8.03;7.33;;;26.40;97.90;;;;;;5011350;28;20578;-64
2023/09/11 10:44:17;;;;;;;8.10;7.50;;;26.50;97.70;;;;;;5011150;28;20537;-64
2023/09/11 10:46:49;;;;;;;9.07;8.07;;;26.60;97.20;;;;;;5010857;28;20485;-64
2023/09/11 10:49:18;;;;;;;8.43;7.80;;;26.60;97.30;;;;;;5011101;28;20537;-65
2023/09/11 10:51:47;;;;;;;9.57;8.70;;;26.70;96.80;;;;;;5011155;28;20996;-64
2023/09/11 10:54:16;;;;;;;8.47;7.87;;;26.80;96.90;;;;;;5011029;28;20823;-64
2023/09/11 10:56:44;;;;;;;8.23;7.63;;;26.80;95.20;;;;;;5010471;28;20874;-64
2023/09/11 10:59:11;;;;;;;8.77;8.07;;;26.90;94.90;;;;;;5010719;28;20823;-64
2023/09/11 11:01:38;;;;;;;8.93;8.20;;;27.00;94.80;;;;;;5010805;28;20489;-64
2023/09/11 11:04:06;;;;;;;8.73;7.93;;;27.00;94.20;;;;;;5010337;28;20447;-64
2023/09/11 11:06:34;;;;;;;8.07;7.47;;;27.20;95.50;;;;;;5010384;28;20463;-64
2023/09/11 11:09:01;;;;;;;9.47;8.57;;;27.30;95.20;;;;;;5010743;28;20527;-64
2023/09/11 11:11:32;;;;;;;8.73;7.83;;;27.50;95.50;;;;;;5010427;28;20448;-64
2023/09/11 11:14:13;;;;;;;10.13;9.20;;;27.60;94.90;;;;;;4995161;28;20514;-64
2023/09/11 11:16:40;;;;;;;8.73;8.13;;;27.70;94.00;;;;;;5010180;28;20493;-64
2023/09/11 11:19:07;;;;;;;7.53;7.03;;;27.80;94.50;;;;;;5010660;28;20450;-64
2023/09/11 11:21:41;;;;;;;9.33;8.43;;;27.90;94.10;;;;;;5010431;28;20496;-64
2023/09/11 11:24:10;;;;;;;9.73;8.93;;;27.90;92.60;;;;;;5010479;28;20527;-64
2023/09/11 11:26:40;;;;;;;9.13;8.33;;;28.10;93.30;;;;;;5010214;28;20909;-65
2023/09/11 11:29:07;;;;;;;9.30;8.47;;;28.20;93.00;;;;;;5010724;28;20445;-65
2023/09/11 11:31:35;;;;;;;9.90;8.90;;;28.20;92.70;;;;;;5010513;28;20449;-64
2023/09/11 11:34:02;;;;;;;9.73;8.70;;;28.40;93.10;;;;;;5010498;28;20537;-64
2023/09/11 11:36:30;;;;;;;10.07;9.17;;;28.40;92.20;;;;;;5009810;28;20468;-65
2023/09/11 11:38:59;;;;;;;9.80;9.00;;;28.50;92.60;;;;;;5010247;28;20444;-65
2023/09/11 11:41:26;;;;;;;8.67;7.97;;;28.60;92.00;;;;;;5011920;28;20487;-65
2023/09/11 11:43:54;;;;;;;9.00;8.43;;;28.70;91.40;;;;;;5014182;28;20519;-64
2023/09/11 11:46:25;;;;;;;7.97;7.27;;;28.70;91.00;;;;;;5013770;28;20468;-64
2023/09/11 11:48:52;;;;;;;8.77;7.87;;;28.80;91.50;;;;;;5013821;28;20449;-64
2023/09/11 11:51:28;;;;;;;8.97;8.13;;;28.90;91.20;;;;;;5014282;28;20448;-65
2023/09/11 11:53:55;;;;;;;9.97;8.03;;;29.10;90.50;;;;;;5013941;28;20441;-65
2023/09/11 11:56:22;;;;;;;9.23;8.53;;;29.20;86.50;;;;;;5013685;28;20468;-65
2023/09/11 11:58:49;;;;;;;17.93;10.10;;;29.40;87.00;;;;;;5014061;28;20882;-64
2023/09/11 12:01:17;;;;;;;7.67;7.00;;;29.50;85.60;;;;;;5013708;28;20453;-65
2023/09/11 12:03:49;;;;;;;8.20;7.50;;;29.60;82.50;;;;;;5013798;28;20517;-65
2023/09/11 12:06:16;;;;;;;7.30;6.70;;;29.70;83.30;;;;;;5013631;28;20494;-64
2023/09/11 12:08:45;;;;;;;6.60;6.10;;;29.90;79.80;;;;;;5013997;28;20664;-65
2023/09/11 12:11:12;;;;;;;7.23;6.60;;;30.00;81.20;;;;;;5013851;28;20442;-65
2023/09/11 12:13:39;;;;;;;8.30;7.60;;;30.10;78.80;;;;;;5013841;28;20453;-64
2023/09/11 12:16:06;;;;;;;8.37;7.60;;;30.20;78.10;;;;;;5013055;28;20994;-65
2023/09/11 12:18:37;;;;;;;11.07;7.50;;;30.40;79.80;;;;;;5013917;28;20446;-67
2023/09/11 12:21:06;;;;;;;7.43;6.83;;;30.50;77.60;;;;;;5013719;28;20481;-66
2023/09/11 12:23:33;;;;;;;7.60;6.93;;;30.60;79.20;;;;;;5013515;28;20866;-65
2023/09/11 12:26:01;;;;;;;7.30;6.60;;;30.80;80.30;;;;;;5013079;28;20550;-65
2023/09/11 12:28:29;;;;;;;7.30;6.60;;;30.90;77.00;;;;;;5013296;28;20449;-66
2023/09/11 12:30:56;;;;;;;8.23;6.20;;;30.90;75.40;;;;;;5013503;28;20484;-65
2023/09/11 12:33:24;;;;;;;6.57;6.00;;;31.00;72.20;;;;;;5013567;28;20445;-66
2023/09/11 12:35:54;;;;;;;7.23;6.63;;;31.20;68.60;;;;;;5012990;28;20463;-66
2023/09/11 12:38:23;;;;;;;14.33;7.30;;;31.30;72.80;;;;;;5013356;28;20445;-66
2023/09/11 12:40:52;;;;;;;16.77;8.60;;;31.40;72.20;;;;;;5013191;28;20449;-66
2023/09/11 12:43:20;;;;;;;7.80;6.13;;;31.60;71.60;;;;;;5013158;28;20531;-66
2023/09/11 12:45:48;;;;;;;6.93;6.17;;;31.80;71.50;;;;;;5012710;28;20474;-66
2023/09/11 12:48:17;;;;;;;8.97;7.40;;;32.10;68.10;;;;;;5013219;28;20874;-66
2023/09/11 12:50:44;;;;;;;6.77;5.90;;;32.20;67.40;;;;;;5013119;28;21056;-65